KCWA/CWA METAR and TAF weather

Enter ICAO airport designator
Station Type Date Time Source
KCWA METAR 2022/06/27 16:47 UTC NOAA

KCWA 271647Z 31009G16KT 10SM CLR 19/05 A3026


Station Type Date Time Source
KCWA Decoded METAR 2022/06/27 16:47 UTC NOAA

Mosinee / Central Wisconsin, WI, United States (KCWA) 44-47N 089-40W
Jun 27, 2022 - 12:47 PM EDT / 2022.06.27 1647 UTC
Wind: from the NW (310 degrees) at 10 MPH (9 KT) gusting to 18 MPH (16 KT):0
Visibility: 10 mile(s):0
Sky conditions: clear
Temperature: 66 F (19 C)
Dew Point: 41 F (5 C)
Relative Humidity: 39%
Pressure (altimeter): 30.26 in. Hg (1024 hPa)
ob: KCWA 271647Z 31009G16KT 10SM CLR 19/05 A3026
cycle: 17

Station Type Date Time Source
KCWA TAF 2022/06/27 14:21 UTC NOAA

TAF
AMD KCWA 271419Z 2714/2812 32008G16KT P6SM SKC
FM272200 26004KT P6SM SKC
FM280000 23004KT P6SM SKC

Example: see airport list